Архив погоды в Ногликах

Метеограмма Ноглики
Воскресенье, 31 Мая
Время местн. Темп Ветер Видим Явления Облачность нижн/средн/верх Атм. давл. Влжн Точка росы ВНГО R Сост. почвы Tg s
Напр Скр Прв ур.ст ур.м изм
13:00 +11° В 4 6 более 50 км - переменная облачность 752 756 -1.1 73% +6.4° более 2.5 км - - - -
10:00 +9.7° В,Ю-В 2 6 50 км облака рассеиваются {ливневые осадки} переменная облачность 753 757 -0.2 78% +6° 600 м - - - -
07:00 +6.2° Ю-В 3 5 50 км облака рассеиваются {ливневые осадки} преимущественно облачно 754 757 -0.5 95% +5.5° 1 км 7 Влажная (без луж) - -
04:00 +5.3° В,Ю-В 2 6 4 км слабый ливневый дождь облачно 754 758 -0.5 98% +5° 600 м - - - -
01:00 +6.2° В,С-В 2 3 4 км слабый ливневый дождь облачно 755 758 +0.3 98% +5.9° 600 м - - - -
Суббота, 30 Мая
Время местн. Темп Ветер Видим Явления Облачность нижн/средн/верх Атм. давл. Влжн Точка росы ВНГО R Сост. почвы Tg s
Напр Скр Прв ур.ст ур.м изм
22:00 +7.5° Ю-В 3 4 10 км слабый ливневый дождь облачно 754 758 -0.2 92% +6.3° 1 км - - - -
19:00 +10.4° Ю 2 3 50 км - облачно с прояснениями 755 758 +0.7 83% +7.7° 1 км 0 - - -
16:00 +11.6° Ю-В 2 3 50 км - преимущественно облачно 754 757 0 77% +7.8° 1 км - - - -
13:00 +10.1° С 1 2 50 км - преимущественно облачно 754 757 +0.3 76% +6° - - - - -
10:00 +10.2° С,С-З 2 4 более 50 км - облачно 754 757 +0.8 77% +6.4° 1 км - - - -
07:00 +7.6° З 1 3 50 км - преимущественно облачно 753 756 +1.1 97% +7.2° 600 м 2 Влажная (без луж) - -
04:00 +6.3° штиль 0 - 10 км небо без изменений {ливневые осадки} облачно 752 755 +0.2 97% +5.8° 600 м - - - -
01:00 +7° С 2 4 10 км слабый ливневый дождь облачно 752 755 -0.1 95% +6.2° 600 м - - - -
Пятница, 29 Мая
Время местн. Темп Ветер Видим Явления Облачность нижн/средн/верх Атм. давл. Влжн Точка росы ВНГО R Сост. почвы Tg s
Напр Скр Прв ур.ст ур.м изм
22:00 +4.8° Ю 3 4 10 км слабый ливневый дождь облачно 752 755 +1.3 94% +3.9° 600 м - - - -
19:00 +8.8° Ю-В 4 7 50 км - облачно с прояснениями 750 754 +0.4 63% +2.1° более 2.5 км 0 - - -
16:00 +8.2° Ю-В 5 11 более 50 км - облачно с прояснениями 750 753 -0.4 65% +2.1° более 2.5 км - - - -
13:00 +7° Ю-В 6 9 50 км - облачно с прояснениями 750 754 -0.7 69% +1.8° 600 м - - - -
10:00 +5.5° Ю-В 3 5 50 км - облачно с прояснениями 751 755 -0.8 74% +1.3° 600 м - - - -
07:00 +1.5° В,Ю-В 2 3 более 50 км - облачно 752 755 +0.1 92% +0.3° 600 м 0 Сухая (без трещин) +3° -
04:00 +0.7° штиль 0 - 10 км - облачно 752 755 -0.2 94% -0.2° 600 м - - - -
01:00 +1.3° З,Ю-З 1 1 10 км - облачно 752 756 -0.2 92% +0.1° 600 м - - - -
Четверг, 28 Мая
Время местн. Темп Ветер Видим Явления Облачность нижн/средн/верх Атм. давл. Влжн Точка росы ВНГО R Сост. почвы Tg s
Напр Скр Прв ур.ст ур.м изм
22:00 +1.5° С-З 1 5 10 км - облачно 752 756 +0.6 91% +0.2° 600 м - - - -
19:00 +2° С-В 3 4 50 км - преимущественно облачно 751 755 +1.1 88% +0.3° 300 м 0 - - -
16:00 +6.1° С 4 7 50 км - переменная облачность 750 754 +0.2 67% +0.4° 300 м - - - -
13:00 +3.6° С-В 3 4 50 км - преимущественно облачно 750 754 +0.8 81% +0.7° 600 м - - - -
10:00 +6° В 1 3 50 км облака рассеиваются {туман} облачно 749 753 -0.2 72% +1.4° более 2.5 км - - - -